createdAt,value
2022-08-17T00:02:27.278Z,23.27
2022-08-17T00:05:36.657Z,23.23
2022-08-17T00:08:45.546Z,23.19
2022-08-17T00:12:41.605Z,23.14
2022-08-17T00:15:19.996Z,23.10
2022-08-17T00:18:58.346Z,23.07
2022-08-17T00:22:32.378Z,23.04
2022-08-17T00:25:22.851Z,23.00
2022-08-17T00:28:29.433Z,22.95
2022-08-17T00:31:39.821Z,22.95
2022-08-17T00:34:45.959Z,22.93
2022-08-17T00:37:52.283Z,22.89
2022-08-17T00:41:00.787Z,22.84
2022-08-17T00:44:08.743Z,22.81
2022-08-17T00:47:14.882Z,22.79
2022-08-17T00:50:21.942Z,22.77
2022-08-17T00:53:30.767Z,22.74
2022-08-17T00:56:41.185Z,22.71
2022-08-17T01:00:03.309Z,22.69
2022-08-17T01:03:14.180Z,22.68
2022-08-17T01:06:21.914Z,22.66
2022-08-17T01:09:29.003Z,22.64
2022-08-17T01:12:37.526Z,22.63
2022-08-17T01:15:50.248Z,22.60
2022-08-17T01:18:59.612Z,22.59
2022-08-17T01:22:09.408Z,22.55
2022-08-17T01:25:16.186Z,22.53
2022-08-17T01:28:52.526Z,22.51
2022-08-17T01:31:55.302Z,22.46
2022-08-17T01:35:01.990Z,22.43
2022-08-17T01:38:09.736Z,22.40
2022-08-17T01:41:20.217Z,22.37
2022-08-17T01:44:28.450Z,22.33
2022-08-17T01:47:36.152Z,22.30
2022-08-17T01:50:45.464Z,22.27
2022-08-17T01:53:58.378Z,22.24
2022-08-17T01:57:04.939Z,22.21
2022-08-17T02:00:13.806Z,22.17
2022-08-17T02:03:22.990Z,22.15
2022-08-17T02:06:29.405Z,22.13
2022-08-17T02:09:35.627Z,22.11
2022-08-17T02:12:48.968Z,22.11
2022-08-17T02:15:55.308Z,22.09
2022-08-17T02:19:02.159Z,22.09
2022-08-17T02:22:08.401Z,22.07
2022-08-17T02:25:17.660Z,22.06
2022-08-17T02:28:23.914Z,22.03
2022-08-17T02:31:31.237Z,21.99
2022-08-17T02:34:37.676Z,21.96
2022-08-17T02:37:43.831Z,21.92
2022-08-17T02:40:55.243Z,21.88
2022-08-17T02:44:01.409Z,21.85
2022-08-17T02:47:07.858Z,21.83
2022-08-17T02:50:18.823Z,21.79
2022-08-17T02:53:25.750Z,21.76
2022-08-17T02:56:31.990Z,21.75
2022-08-17T02:59:38.391Z,21.74
2022-08-17T03:02:46.365Z,21.72
2022-08-17T03:05:53.433Z,21.71
2022-08-17T03:08:59.376Z,21.68
2022-08-17T03:12:08.358Z,21.66
2022-08-17T03:15:16.784Z,21.61
2022-08-17T03:18:26.329Z,21.60
2022-08-17T03:21:32.685Z,21.57
2022-08-17T03:24:38.898Z,21.54
2022-08-17T03:27:48.179Z,21.52
2022-08-17T03:30:56.427Z,21.51
2022-08-17T03:34:02.631Z,21.49
2022-08-17T03:37:08.908Z,21.46
2022-08-17T03:40:15.810Z,21.44
2022-08-17T03:43:41.931Z,21.42
2022-08-17T03:47:05.684Z,21.40
2022-08-17T03:50:34.217Z,21.39
2022-08-17T03:54:09.874Z,21.39
2022-08-17T03:57:16.489Z,21.37
2022-08-17T04:00:22.851Z,21.38
2022-08-17T04:03:29.031Z,21.38
2022-08-17T04:06:35.147Z,21.37
2022-08-17T04:09:43.074Z,21.38
2022-08-17T04:12:54.660Z,21.37
2022-08-17T04:16:00.850Z,21.37
2022-08-17T04:19:07.830Z,21.38
2022-08-17T04:22:31.766Z,21.37
2022-08-17T04:25:41.730Z,21.36
2022-08-17T04:28:48.266Z,21.36
2022-08-17T04:31:54.605Z,21.38
2022-08-17T04:35:00.956Z,21.40
2022-08-17T04:38:07.832Z,21.41
2022-08-17T04:41:33.350Z,21.42
2022-08-17T04:44:38.177Z,21.45
2022-08-17T04:47:44.171Z,21.47
2022-08-17T04:50:49.402Z,21.54
2022-08-17T04:54:01.754Z,21.58
2022-08-17T04:57:08.304Z,21.67
2022-08-17T05:00:16.181Z,21.74
2022-08-17T05:03:22.310Z,21.81
2022-08-17T05:06:29.895Z,21.88
2022-08-17T05:09:36.024Z,21.98
2022-08-17T05:12:42.340Z,22.07
2022-08-17T05:15:49.969Z,22.16
2022-08-17T05:18:56.712Z,22.23
2022-08-17T05:22:05.238Z,22.32
2022-08-17T05:25:12.217Z,22.44
2022-08-17T05:28:24.216Z,22.59
2022-08-17T05:31:34.042Z,22.72
2022-08-17T05:34:40.436Z,22.86
2022-08-17T05:37:46.665Z,23.01
2022-08-17T05:40:53.660Z,23.19
2022-08-17T05:43:59.867Z,23.35
2022-08-17T05:47:11.451Z,23.53
2022-08-17T05:50:27.170Z,23.71
2022-08-17T05:53:44.852Z,23.91
2022-08-17T05:57:12.754Z,24.10
2022-08-17T06:00:29.973Z,24.31
2022-08-17T06:03:45.962Z,24.51
2022-08-17T06:06:57.774Z,24.71
2022-08-17T06:10:13.799Z,24.91
2022-08-17T06:13:25.395Z,25.12
2022-08-17T06:16:37.610Z,25.34
2022-08-17T06:19:49.543Z,25.55
2022-08-17T06:23:04.126Z,25.74
2022-08-17T06:26:15.987Z,25.91
2022-08-17T06:29:33.611Z,26.08
2022-08-17T06:32:41.727Z,26.25
2022-08-17T06:36:02.882Z,26.43
2022-08-17T06:39:36.596Z,26.64
2022-08-17T06:42:59.994Z,26.87
2022-08-17T06:46:19.205Z,27.11
2022-08-17T06:49:29.374Z,27.32
2022-08-17T06:52:47.383Z,27.53
2022-08-17T06:56:01.364Z,27.78
2022-08-17T06:59:10.359Z,28.01
2022-08-17T07:02:20.703Z,28.22
2022-08-17T07:05:49.673Z,28.44
2022-08-17T07:09:01.204Z,28.35
2022-08-17T07:12:16.284Z,28.10
2022-08-17T07:15:28.760Z,27.96
2022-08-17T07:18:35.312Z,27.95
2022-08-17T07:21:55.151Z,28.00
2022-08-17T07:25:06.358Z,28.06
2022-08-17T07:28:13.133Z,28.14
2022-08-17T07:31:19.355Z,28.18
2022-08-17T07:34:25.500Z,28.24
2022-08-17T07:37:36.966Z,28.36
2022-08-17T07:40:45.693Z,28.47
2022-08-17T07:43:52.966Z,28.57
2022-08-17T07:47:16.959Z,28.62
2022-08-17T07:50:31.069Z,28.68
2022-08-17T07:53:37.260Z,28.82
2022-08-17T07:56:47.302Z,28.95
2022-08-17T08:03:32.181Z,29.14
2022-08-17T08:06:54.615Z,29.26
2022-08-17T08:10:12.985Z,29.35
2022-08-17T08:13:28.054Z,29.46
2022-08-17T08:16:32.487Z,29.51
2022-08-17T08:19:38.850Z,29.59
2022-08-17T08:22:53.814Z,29.64
2022-08-17T08:26:17.972Z,29.73
2022-08-17T08:29:33.022Z,29.80
2022-08-17T08:32:55.337Z,29.87
2022-08-17T08:36:08.986Z,29.96
2022-08-17T08:39:20.819Z,30.02
2022-08-17T08:42:33.124Z,30.08
2022-08-17T08:45:52.479Z,30.12
2022-08-17T08:49:14.374Z,30.18
2022-08-17T08:52:34.239Z,30.19
2022-08-17T08:55:49.689Z,30.22
2022-08-17T08:59:03.764Z,30.25
2022-08-17T09:02:35.212Z,30.32
2022-08-17T09:06:03.004Z,30.38
2022-08-17T09:09:19.159Z,30.46
2022-08-17T09:12:38.130Z,30.45
2022-08-17T09:15:47.485Z,30.42
2022-08-17T09:19:02.676Z,30.42
2022-08-17T09:22:25.635Z,30.51
2022-08-17T09:25:49.966Z,30.63
2022-08-17T09:29:01.694Z,30.73
2022-08-17T09:32:17.709Z,30.80
2022-08-17T09:35:36.579Z,30.79
2022-08-17T09:38:53.948Z,30.74
2022-08-17T09:42:07.938Z,30.75
2022-08-17T09:45:29.324Z,30.80
2022-08-17T09:48:40.728Z,30.78
2022-08-17T09:51:51.530Z,30.63
2022-08-17T09:55:00.231Z,30.54
2022-08-17T09:58:15.507Z,30.58
2022-08-17T10:01:31.469Z,30.65
2022-08-17T10:04:47.951Z,30.62
2022-08-17T10:08:01.935Z,30.61
2022-08-17T10:11:18.624Z,30.61
2022-08-17T10:14:37.305Z,30.71
2022-08-17T10:18:04.102Z,30.83
2022-08-17T10:21:29.924Z,30.98
2022-08-17T10:25:21.808Z,31.19
2022-08-17T10:28:31.215Z,31.37
2022-08-17T10:31:44.931Z,31.44
2022-08-17T10:35:19.027Z,31.44
2022-08-17T10:38:46.804Z,31.39
2022-08-17T10:41:57.819Z,31.33
2022-08-17T10:45:08.289Z,31.25
2022-08-17T10:48:33.095Z,31.11
2022-08-17T10:51:41.019Z,30.94
2022-08-17T11:35:28.595Z,27.41
2022-08-17T11:38:46.402Z,27.44
2022-08-17T11:41:58.766Z,27.46
2022-08-17T11:45:32.383Z,27.47
2022-08-17T11:49:07.336Z,27.53
2022-08-17T11:52:32.856Z,27.64
2022-08-17T11:56:06.501Z,27.84
2022-08-17T11:59:47.783Z,28.01
2022-08-17T12:03:39.997Z,28.05
2022-08-17T12:06:52.663Z,28.22
2022-08-17T12:10:01.629Z,28.45
2022-08-17T12:13:13.661Z,28.69
2022-08-17T12:16:21.830Z,28.96
2022-08-17T12:19:29.785Z,29.16
2022-08-17T12:22:46.576Z,29.33
2022-08-17T12:25:58.695Z,29.59
2022-08-17T12:29:09.225Z,29.77
2022-08-17T12:32:34.566Z,29.81
2022-08-17T12:35:40.839Z,29.79
2022-08-17T12:39:13.669Z,29.82
2022-08-17T12:42:31.232Z,29.86
2022-08-17T12:45:40.385Z,29.94
2022-08-17T12:48:54.966Z,30.11
2022-08-17T12:52:12.817Z,30.29
2022-08-17T12:55:25.226Z,30.45
2022-08-17T12:58:38.844Z,30.36
2022-08-17T13:01:46.283Z,30.10
2022-08-17T13:04:52.568Z,30.00
2022-08-17T13:08:00.648Z,30.37
2022-08-17T13:11:09.928Z,30.76
2022-08-17T13:14:20.498Z,31.05
2022-08-17T13:17:34.743Z,31.31
2022-08-17T13:20:40.998Z,31.40
2022-08-17T13:23:57.932Z,31.13
2022-08-17T13:27:15.426Z,30.87
2022-08-17T13:30:28.273Z,30.73
2022-08-17T13:33:44.977Z,30.64
2022-08-17T13:36:53.298Z,30.58
2022-08-17T13:40:03.335Z,30.54
2022-08-17T13:43:09.843Z,30.49
2022-08-17T13:46:21.548Z,30.46
2022-08-17T13:49:48.174Z,30.54
2022-08-17T13:52:54.831Z,31.03
2022-08-17T13:56:04.003Z,31.38
2022-08-17T13:59:13.098Z,31.64
2022-08-17T14:02:21.422Z,31.75
2022-08-17T14:05:28.042Z,31.50
2022-08-17T14:08:34.234Z,31.27
2022-08-17T14:11:40.437Z,31.14
2022-08-17T14:14:48.062Z,31.04
2022-08-17T14:17:54.812Z,30.94
2022-08-17T14:21:01.316Z,30.83
2022-08-17T14:24:10.091Z,30.75
2022-08-17T14:27:18.139Z,30.70
2022-08-17T14:30:28.838Z,30.64
2022-08-17T14:33:36.665Z,30.55
2022-08-17T14:36:48.235Z,30.50
2022-08-17T14:39:57.118Z,30.45
2022-08-17T14:43:03.346Z,30.41
2022-08-17T14:46:12.251Z,30.37
2022-08-17T14:49:19.855Z,30.33
2022-08-17T14:52:26.524Z,30.28
2022-08-17T14:55:32.737Z,30.23
2022-08-17T14:58:39.360Z,30.21
2022-08-17T15:01:47.854Z,30.19
2022-08-17T15:04:54.521Z,30.17
2022-08-17T15:08:03.234Z,30.14
2022-08-17T15:11:11.904Z,30.13
2022-08-17T15:14:20.741Z,30.11
2022-08-17T15:17:26.973Z,30.08
2022-08-17T15:20:52.870Z,30.04
2022-08-17T15:23:59.379Z,30.02
2022-08-17T15:27:05.924Z,30.00
2022-08-17T15:30:13.594Z,30.00
2022-08-17T15:33:22.097Z,29.99
2022-08-17T15:36:28.598Z,29.97
2022-08-17T15:39:34.756Z,29.93
2022-08-17T15:42:41.648Z,29.90
2022-08-17T15:45:59.674Z,29.87
2022-08-17T15:49:06.560Z,29.85
2022-08-17T15:52:20.472Z,29.84
2022-08-17T15:55:28.095Z,29.82
2022-08-17T15:58:34.550Z,29.80
2022-08-17T16:03:14.822Z,29.72
2022-08-17T16:05:11.408Z,29.53
2022-08-17T16:08:21.313Z,29.31
2022-08-17T16:11:28.074Z,29.12
2022-08-17T16:14:35.265Z,28.94
2022-08-17T16:17:42.401Z,28.76
2022-08-17T16:20:48.590Z,28.59
2022-08-17T16:23:58.397Z,28.43
2022-08-17T16:27:05.025Z,28.29
2022-08-17T16:30:19.499Z,28.17
2022-08-17T16:33:25.667Z,28.06
2022-08-17T16:36:31.819Z,27.94
2022-08-17T16:39:39.284Z,27.83
2022-08-17T16:42:49.296Z,27.72
2022-08-17T16:45:55.593Z,27.72
2022-08-17T16:49:02.173Z,28.10
2022-08-17T16:52:11.282Z,28.44
2022-08-17T16:55:19.016Z,28.67
2022-08-17T16:58:25.198Z,28.83
2022-08-17T17:01:32.053Z,28.95
2022-08-17T17:04:43.582Z,29.03
2022-08-17T17:08:03.434Z,29.11
2022-08-17T17:11:15.990Z,29.19
2022-08-17T17:14:28.627Z,29.25
2022-08-17T17:17:38.260Z,29.28
2022-08-17T17:20:51.169Z,29.30
2022-08-17T17:24:01.538Z,29.30
2022-08-17T17:27:29.700Z,29.28
2022-08-17T17:30:47.105Z,29.10
2022-08-17T17:33:57.798Z,28.56
2022-08-17T17:37:09.004Z,28.13
2022-08-17T17:40:23.734Z,27.80
2022-08-17T17:43:40.106Z,27.61
2022-08-17T17:46:50.564Z,27.86
2022-08-17T17:49:56.750Z,28.05
2022-08-17T17:53:07.649Z,28.12
2022-08-17T17:56:43.159Z,28.14
2022-08-17T17:59:56.824Z,28.14
2022-08-17T18:03:26.022Z,28.16
2022-08-17T18:06:45.655Z,28.15
2022-08-17T18:10:29.506Z,28.13
2022-08-17T18:13:57.253Z,28.11
2022-08-17T18:17:04.987Z,28.08
2022-08-17T18:20:11.587Z,28.05
2022-08-17T18:23:18.056Z,28.02
2022-08-17T18:26:50.383Z,27.98
2022-08-17T18:30:00.236Z,27.93
2022-08-17T18:33:23.839Z,27.87
2022-08-17T18:36:33.520Z,27.79
2022-08-17T18:39:39.890Z,27.70
2022-08-17T18:42:56.955Z,27.61
2022-08-17T18:46:29.021Z,27.54
2022-08-17T18:49:36.474Z,27.46
2022-08-17T18:52:42.536Z,27.40
2022-08-17T18:55:48.933Z,27.34
2022-08-17T18:59:02.240Z,27.29
2022-08-17T19:02:44.254Z,27.24
2022-08-17T19:05:53.780Z,27.16
2022-08-17T19:09:00.921Z,27.10
2022-08-17T19:12:27.180Z,27.03
2022-08-17T19:15:41.146Z,26.98
2022-08-17T19:18:53.612Z,26.92
2022-08-17T19:22:07.166Z,26.87
2022-08-17T19:25:21.815Z,26.79
2022-08-17T19:28:35.057Z,26.73
2022-08-17T19:31:41.816Z,26.68
2022-08-17T19:34:48.287Z,26.60
2022-08-17T19:38:13.010Z,26.52
2022-08-17T19:41:26.251Z,26.43
2022-08-17T19:44:56.405Z,26.37
2022-08-17T19:48:13.714Z,26.31
2022-08-17T19:51:28.310Z,26.26
2022-08-17T19:54:39.246Z,26.20
2022-08-17T19:57:54.123Z,26.14
2022-08-17T20:01:00.461Z,26.08
2022-08-17T20:04:14.347Z,26.02
2022-08-17T20:07:25.062Z,25.96
2022-08-17T20:10:39.720Z,25.93
2022-08-17T20:13:51.194Z,25.89
2022-08-17T20:17:02.462Z,25.85
2022-08-17T20:20:27.714Z,25.79
2022-08-17T20:23:47.323Z,25.73
2022-08-17T20:26:58.439Z,25.66
2022-08-17T20:30:33.259Z,25.62
2022-08-17T20:33:40.160Z,25.57
2022-08-17T20:37:02.282Z,25.52
2022-08-17T20:40:31.797Z,25.48
2022-08-17T20:44:07.243Z,25.45
2022-08-17T20:47:27.031Z,25.41
2022-08-17T20:50:37.970Z,25.35
2022-08-17T20:54:07.749Z,25.32
2022-08-17T20:57:48.721Z,25.30
2022-08-17T21:01:14.363Z,25.25
2022-08-17T21:04:48.422Z,25.23
2022-08-17T21:08:14.147Z,25.19
2022-08-17T21:12:04.392Z,25.13
2022-08-17T21:15:28.869Z,25.06
2022-08-17T21:18:42.644Z,25.04
2022-08-17T21:22:02.002Z,25.01
2022-08-17T21:25:22.200Z,24.98
2022-08-17T21:28:37.636Z,24.93
2022-08-17T21:32:23.733Z,24.88
2022-08-17T21:35:47.906Z,24.81
2022-08-17T21:39:01.976Z,24.75
2022-08-17T21:42:10.524Z,24.70
2022-08-17T21:45:23.972Z,24.64
2022-08-17T21:48:32.387Z,24.60
2022-08-17T21:51:44.938Z,24.57
2022-08-17T21:54:56.246Z,24.56
2022-08-17T21:58:13.896Z,24.54
2022-08-17T22:01:27.289Z,24.52
2022-08-17T22:04:35.779Z,24.50
2022-08-17T22:07:44.557Z,24.45
2022-08-17T22:10:52.631Z,24.39
2022-08-17T22:14:05.814Z,24.33
2022-08-17T22:17:19.312Z,24.31
2022-08-17T22:20:25.827Z,24.27
2022-08-17T22:23:52.771Z,24.23
2022-08-17T22:27:07.702Z,24.20
2022-08-17T22:30:20.947Z,24.15
2022-08-17T22:33:40.038Z,24.11
2022-08-17T22:36:46.338Z,24.07
2022-08-17T22:40:01.018Z,24.03
2022-08-17T22:43:13.015Z,23.97
2022-08-17T22:46:21.378Z,23.92
2022-08-17T22:49:38.795Z,23.87
2022-08-17T22:53:21.076Z,23.85
2022-08-17T22:56:45.793Z,23.82
2022-08-17T22:59:55.199Z,23.78
2022-08-17T23:03:12.405Z,23.74
2022-08-17T23:06:18.672Z,23.71
2022-08-17T23:09:24.910Z,23.69
2022-08-17T23:12:31.101Z,23.66
2022-08-17T23:15:37.999Z,23.62
2022-08-17T23:18:44.507Z,23.59
2022-08-17T23:21:55.591Z,23.56
2022-08-17T23:25:01.814Z,23.51
2022-08-17T23:28:09.365Z,23.45
2022-08-17T23:31:19.853Z,23.42
2022-08-17T23:34:32.225Z,23.39
2022-08-17T23:37:39.247Z,23.35
2022-08-17T23:40:45.458Z,23.29
2022-08-17T23:43:53.783Z,23.23
2022-08-17T23:47:00.371Z,23.20
2022-08-17T23:50:07.187Z,23.17
2022-08-17T23:53:13.396Z,23.16
2022-08-17T23:56:24.591Z,23.14
2022-08-17T23:59:31.009Z,23.09
